Aripeka, Florida
Current Conditions -  °F | °C
As of 6:53 AM on Friday 24 Oct 2014 (Local Time) from KBKV Reporting Station
Clear Clear  
Wind Chill: 58°   Ceiling: Unl
Heat Index: 58°   Visibility: 10mi
Dew Point: 53°   Wind: 9mph
Humidity: 84%   Direction: 40°NE
Pressure: 29.99"   Gusts: NA
Location:  28.43°N, 82.66°W
Report Text: KBKV 241053Z 04008KT 10SM CLR 14/12 A2999 RMK AO2 SLP154 T01440117
Loading
Personal Weather Stations






























Interactive Weather Map
Tropical Storm Tracking
New forecast layout! Learn more

10-Day Weather Forecast

Advertisements
Track Severe Weather on mobile